sensor_id;sensor_type;location;lat;lon;timestamp;pressure;altitude;pressure_sealevel;temperature;humidity
62926;BME280;55732;52.248;-0.844;2023-03-14T00:00:59;97874.30;;;7.70;89.72
62926;BME280;55732;52.248;-0.844;2023-03-14T00:03:25;97880.33;;;7.63;89.31
62926;BME280;55732;52.248;-0.844;2023-03-14T00:05:50;97881.60;;;7.56;89.24
62926;BME280;55732;52.248;-0.844;2023-03-14T00:08:16;97896.80;;;7.52;89.35
62926;BME280;55732;52.248;-0.844;2023-03-14T00:10:43;97899.69;;;7.49;89.58
62926;BME280;55732;52.248;-0.844;2023-03-14T00:13:08;97905.20;;;7.46;89.65
62926;BME280;55732;52.248;-0.844;2023-03-14T00:15:34;97908.79;;;7.44;89.33
62926;BME280;55732;52.248;-0.844;2023-03-14T00:18:00;97913.60;;;7.41;89.04
62926;BME280;55732;52.248;-0.844;2023-03-14T00:20:26;97913.15;;;7.38;89.12
62926;BME280;55732;52.248;-0.844;2023-03-14T00:22:51;97919.33;;;7.37;89.08
62926;BME280;55732;52.248;-0.844;2023-03-14T00:25:17;97923.05;;;7.36;89.08
62926;BME280;55732;52.248;-0.844;2023-03-14T00:27:42;97926.34;;;7.31;88.79
62926;BME280;55732;52.248;-0.844;2023-03-14T00:30:09;97924.89;;;7.27;88.61
62926;BME280;55732;52.248;-0.844;2023-03-14T00:32:37;97929.55;;;7.23;88.32
62926;BME280;55732;52.248;-0.844;2023-03-14T00:35:03;97939.30;;;7.19;88.24
62926;BME280;55732;52.248;-0.844;2023-03-14T00:37:29;97940.98;;;7.16;88.42
62926;BME280;55732;52.248;-0.844;2023-03-14T00:39:55;97949.98;;;7.13;88.46
62926;BME280;55732;52.248;-0.844;2023-03-14T00:42:20;97953.39;;;7.10;88.27
62926;BME280;55732;52.248;-0.844;2023-03-14T00:44:46;97960.84;;;7.07;88.03
62926;BME280;55732;52.248;-0.844;2023-03-14T00:47:11;97962.04;;;7.02;87.94
62926;BME280;55732;52.248;-0.844;2023-03-14T00:49:37;97961.11;;;6.98;88.03
62926;BME280;55732;52.248;-0.844;2023-03-14T00:52:02;97964.54;;;6.94;88.09
62926;BME280;55732;52.248;-0.844;2023-03-14T00:54:28;97969.70;;;6.91;88.02
62926;BME280;55732;52.248;-0.844;2023-03-14T00:56:53;97974.35;;;6.87;87.59
62926;BME280;55732;52.248;-0.844;2023-03-14T00:59:19;97983.25;;;6.82;87.62
62926;BME280;55732;52.248;-0.844;2023-03-14T01:01:44;97992.98;;;6.77;87.49
62926;BME280;55732;52.248;-0.844;2023-03-14T01:04:10;97998.73;;;6.72;87.46
62926;BME280;55732;52.248;-0.844;2023-03-14T01:06:36;97999.15;;;6.70;87.52
62926;BME280;55732;52.248;-0.844;2023-03-14T01:09:01;98003.02;;;6.69;87.42
62926;BME280;55732;52.248;-0.844;2023-03-14T01:11:30;98021.19;;;6.70;87.65
62926;BME280;55732;52.248;-0.844;2023-03-14T01:13:56;98027.32;;;6.69;87.39
62926;BME280;55732;52.248;-0.844;2023-03-14T01:16:23;98032.87;;;6.64;86.74
62926;BME280;55732;52.248;-0.844;2023-03-14T01:18:49;98039.40;;;6.55;86.30
62926;BME280;55732;52.248;-0.844;2023-03-14T01:21:21;98040.86;;;6.46;85.95
62926;BME280;55732;52.248;-0.844;2023-03-14T01:23:48;98042.50;;;6.36;85.87
62926;BME280;55732;52.248;-0.844;2023-03-14T01:26:17;98052.14;;;6.28;85.75
62926;BME280;55732;52.248;-0.844;2023-03-14T01:28:45;98057.23;;;6.20;85.77
62926;BME280;55732;52.248;-0.844;2023-03-14T01:31:11;98064.08;;;6.12;85.74
62926;BME280;55732;52.248;-0.844;2023-03-14T01:33:38;98069.86;;;6.03;85.63
62926;BME280;55732;52.248;-0.844;2023-03-14T01:36:04;98078.23;;;5.97;85.75
62926;BME280;55732;52.248;-0.844;2023-03-14T01:38:31;98082.74;;;5.91;85.71
62926;BME280;55732;52.248;-0.844;2023-03-14T01:40:58;98091.92;;;5.85;85.90
62926;BME280;55732;52.248;-0.844;2023-03-14T01:43:24;98094.63;;;5.80;85.81
62926;BME280;55732;52.248;-0.844;2023-03-14T01:51:36;98112.16;;;5.77;85.72
62926;BME280;55732;52.248;-0.844;2023-03-14T01:54:21;98122.86;;;5.75;85.65
62926;BME280;55732;52.248;-0.844;2023-03-14T01:57:17;98130.94;;;5.73;85.51
62926;BME280;55732;52.248;-0.844;2023-03-14T01:59:44;98143.75;;;5.69;85.41
62926;BME280;55732;52.248;-0.844;2023-03-14T02:02:12;98151.66;;;5.67;85.36
62926;BME280;55732;52.248;-0.844;2023-03-14T02:04:38;98158.87;;;5.65;85.31
62926;BME280;55732;52.248;-0.844;2023-03-14T02:09:38;98167.46;;;5.63;85.45
62926;BME280;55732;52.248;-0.844;2023-03-14T02:12:04;98174.96;;;5.63;85.12
62926;BME280;55732;52.248;-0.844;2023-03-14T02:14:33;98180.18;;;5.64;85.17
62926;BME280;55732;52.248;-0.844;2023-03-14T02:17:01;98182.27;;;5.65;84.82
62926;BME280;55732;52.248;-0.844;2023-03-14T02:19:48;98190.67;;;5.63;84.63
62926;BME280;55732;52.248;-0.844;2023-03-14T02:22:15;98196.87;;;5.58;84.58
62926;BME280;55732;52.248;-0.844;2023-03-14T02:27:26;98203.52;;;5.48;84.32
62926;BME280;55732;52.248;-0.844;2023-03-14T02:30:13;98210.64;;;5.42;84.08
62926;BME280;55732;52.248;-0.844;2023-03-14T02:32:43;98213.89;;;5.35;84.18
62926;BME280;55732;52.248;-0.844;2023-03-14T02:35:23;98219.75;;;5.30;83.98
62926;BME280;55732;52.248;-0.844;2023-03-14T02:37:59;98222.47;;;5.24;83.82
62926;BME280;55732;52.248;-0.844;2023-03-14T02:40:26;98233.39;;;5.18;83.57
62926;BME280;55732;52.248;-0.844;2023-03-14T02:42:51;98237.14;;;5.13;83.51
62926;BME280;55732;52.248;-0.844;2023-03-14T02:48:21;98246.02;;;5.04;83.17
62926;BME280;55732;52.248;-0.844;2023-03-14T02:50:48;98245.58;;;4.98;83.04
62926;BME280;55732;52.248;-0.844;2023-03-14T02:53:21;98257.52;;;4.94;82.74
62926;BME280;55732;52.248;-0.844;2023-03-14T02:55:48;98269.95;;;4.91;82.49
62926;BME280;55732;52.248;-0.844;2023-03-14T02:58:14;98271.02;;;4.88;82.39
62926;BME280;55732;52.248;-0.844;2023-03-14T03:00:39;98273.14;;;4.87;82.31
62926;BME280;55732;52.248;-0.844;2023-03-14T03:03:05;98278.73;;;4.85;81.92
62926;BME280;55732;52.248;-0.844;2023-03-14T03:05:34;98282.58;;;4.85;81.78
62926;BME280;55732;52.248;-0.844;2023-03-14T03:07:59;98289.19;;;4.86;81.65
62926;BME280;55732;52.248;-0.844;2023-03-14T03:10:26;98291.27;;;4.87;81.78
62926;BME280;55732;52.248;-0.844;2023-03-14T03:12:52;98295.60;;;4.89;81.59
62926;BME280;55732;52.248;-0.844;2023-03-14T03:15:18;98302.72;;;4.91;81.25
62926;BME280;55732;52.248;-0.844;2023-03-14T03:17:43;98305.13;;;4.94;81.54
62926;BME280;55732;52.248;-0.844;2023-03-14T03:20:09;98312.04;;;4.96;81.16
62926;BME280;55732;52.248;-0.844;2023-03-14T03:22:38;98321.40;;;5.00;81.04
62926;BME280;55732;52.248;-0.844;2023-03-14T03:25:06;98331.30;;;5.04;80.74
62926;BME280;55732;52.248;-0.844;2023-03-14T03:27:34;98334.90;;;5.07;80.70
62926;BME280;55732;52.248;-0.844;2023-03-14T03:30:00;98336.13;;;5.07;80.55
62926;BME280;55732;52.248;-0.844;2023-03-14T03:32:26;98348.44;;;5.12;80.22
62926;BME280;55732;52.248;-0.844;2023-03-14T03:34:52;98353.66;;;5.13;80.30
62926;BME280;55732;52.248;-0.844;2023-03-14T03:37:18;98362.55;;;5.13;79.94
62926;BME280;55732;52.248;-0.844;2023-03-14T03:39:43;98371.27;;;5.13;79.82
62926;BME280;55732;52.248;-0.844;2023-03-14T03:42:09;98376.14;;;5.14;79.80
62926;BME280;55732;52.248;-0.844;2023-03-14T03:44:35;98380.14;;;5.15;79.73
62926;BME280;55732;52.248;-0.844;2023-03-14T03:47:01;98386.24;;;5.15;79.57
62926;BME280;55732;52.248;-0.844;2023-03-14T03:49:32;98396.70;;;5.16;79.70
62926;BME280;55732;52.248;-0.844;2023-03-14T03:51:58;98398.80;;;5.16;79.49
62926;BME280;55732;52.248;-0.844;2023-03-14T03:54:24;98405.96;;;5.15;79.34
62926;BME280;55732;52.248;-0.844;2023-03-14T03:56:50;98409.63;;;5.15;79.16
62926;BME280;55732;52.248;-0.844;2023-03-14T03:59:16;98418.71;;;5.14;79.47
62926;BME280;55732;52.248;-0.844;2023-03-14T04:01:42;98421.34;;;5.12;79.25
62926;BME280;55732;52.248;-0.844;2023-03-14T04:04:08;98426.07;;;5.11;79.68
62926;BME280;55732;52.248;-0.844;2023-03-14T04:06:33;98430.95;;;5.12;79.59
62926;BME280;55732;52.248;-0.844;2023-03-14T04:08:59;98434.63;;;5.10;79.42
62926;BME280;55732;52.248;-0.844;2023-03-14T04:11:24;98437.83;;;5.06;79.65
62926;BME280;55732;52.248;-0.844;2023-03-14T04:13:49;98446.95;;;5.02;79.54
62926;BME280;55732;52.248;-0.844;2023-03-14T04:16:21;98448.21;;;4.98;79.39
62926;BME280;55732;52.248;-0.844;2023-03-14T04:18:47;98454.00;;;4.96;79.23
62926;BME280;55732;52.248;-0.844;2023-03-14T04:21:12;98458.77;;;4.92;79.34
62926;BME280;55732;52.248;-0.844;2023-03-14T04:23:38;98471.70;;;4.89;79.49
62926;BME280;55732;52.248;-0.844;2023-03-14T04:26:04;98477.13;;;4.87;79.79
62926;BME280;55732;52.248;-0.844;2023-03-14T04:28:29;98487.09;;;4.85;79.69
62926;BME280;55732;52.248;-0.844;2023-03-14T04:30:55;98493.72;;;4.84;79.87
62926;BME280;55732;52.248;-0.844;2023-03-14T04:33:20;98502.44;;;4.84;79.89
62926;BME280;55732;52.248;-0.844;2023-03-14T04:35:46;98510.16;;;4.82;79.79
62926;BME280;55732;52.248;-0.844;2023-03-14T04:38:13;98514.20;;;4.79;79.99
62926;BME280;55732;52.248;-0.844;2023-03-14T04:40:40;98519.81;;;4.75;80.27
62926;BME280;55732;52.248;-0.844;2023-03-14T04:43:07;98526.13;;;4.72;80.38
62926;BME280;55732;52.248;-0.844;2023-03-14T04:45:32;98538.87;;;4.71;80.46
62926;BME280;55732;52.248;-0.844;2023-03-14T04:47:58;98549.00;;;4.69;80.56
62926;BME280;55732;52.248;-0.844;2023-03-14T04:50:23;98555.10;;;4.69;80.46
62926;BME280;55732;52.248;-0.844;2023-03-14T04:52:49;98557.90;;;4.67;80.09
62926;BME280;55732;52.248;-0.844;2023-03-14T04:55:14;98561.58;;;4.65;80.14
62926;BME280;55732;52.248;-0.844;2023-03-14T04:57:40;98565.41;;;4.65;80.38
62926;BME280;55732;52.248;-0.844;2023-03-14T05:00:06;98570.81;;;4.65;80.33
62926;BME280;55732;52.248;-0.844;2023-03-14T05:02:33;98575.34;;;4.67;80.36
62926;BME280;55732;52.248;-0.844;2023-03-14T05:04:58;98579.69;;;4.68;80.54
62926;BME280;55732;52.248;-0.844;2023-03-14T05:07:24;98586.48;;;4.69;80.44
62926;BME280;55732;52.248;-0.844;2023-03-14T05:09:49;98593.08;;;4.71;80.76
62926;BME280;55732;52.248;-0.844;2023-03-14T05:12:15;98598.45;;;4.74;80.81
62926;BME280;55732;52.248;-0.844;2023-03-14T05:14:40;98610.81;;;4.75;81.03
62926;BME280;55732;52.248;-0.844;2023-03-14T05:17:06;98613.08;;;4.75;80.95
62926;BME280;55732;52.248;-0.844;2023-03-14T05:19:31;98617.09;;;4.74;81.24
62926;BME280;55732;52.248;-0.844;2023-03-14T05:21:57;98625.11;;;4.75;81.39
62926;BME280;55732;52.248;-0.844;2023-03-14T05:24:23;98634.17;;;4.73;81.62
62926;BME280;55732;52.248;-0.844;2023-03-14T05:26:48;98643.98;;;4.71;82.01
62926;BME280;55732;52.248;-0.844;2023-03-14T05:29:13;98650.27;;;4.69;82.44
62926;BME280;55732;52.248;-0.844;2023-03-14T05:31:39;98661.08;;;4.68;82.82
62926;BME280;55732;52.248;-0.844;2023-03-14T05:34:04;98667.38;;;4.66;83.00
62926;BME280;55732;52.248;-0.844;2023-03-14T05:36:30;98677.30;;;4.66;83.09
62926;BME280;55732;52.248;-0.844;2023-03-14T05:38:56;98685.68;;;4.66;83.15
62926;BME280;55732;52.248;-0.844;2023-03-14T05:41:21;98696.50;;;4.63;83.40
62926;BME280;55732;52.248;-0.844;2023-03-14T05:43:46;98705.05;;;4.61;83.37
62926;BME280;55732;52.248;-0.844;2023-03-14T05:46:12;98718.00;;;4.57;83.66
62926;BME280;55732;52.248;-0.844;2023-03-14T05:48:38;98724.11;;;4.53;83.62
62926;BME280;55732;52.248;-0.844;2023-03-14T05:51:04;98734.78;;;4.49;84.04
62926;BME280;55732;52.248;-0.844;2023-03-14T05:53:29;98748.06;;;4.43;83.89
62926;BME280;55732;52.248;-0.844;2023-03-14T05:55:56;98754.73;;;4.36;84.10
62926;BME280;55732;52.248;-0.844;2023-03-14T05:58:22;98759.45;;;4.32;84.45
62926;BME280;55732;52.248;-0.844;2023-03-14T06:00:48;98766.08;;;4.30;84.62
62926;BME280;55732;52.248;-0.844;2023-03-14T06:03:14;98775.49;;;4.27;84.64
62926;BME280;55732;52.248;-0.844;2023-03-14T06:05:39;98784.05;;;4.25;84.73
62926;BME280;55732;52.248;-0.844;2023-03-14T06:08:04;98798.88;;;4.22;85.04
62926;BME280;55732;52.248;-0.844;2023-03-14T06:10:30;98805.15;;;4.20;85.29
62926;BME280;55732;52.248;-0.844;2023-03-14T06:12:56;98811.60;;;4.18;85.42
62926;BME280;55732;52.248;-0.844;2023-03-14T06:15:21;98819.45;;;4.14;85.40
62926;BME280;55732;52.248;-0.844;2023-03-14T06:17:47;98829.92;;;4.09;85.10
62926;BME280;55732;52.248;-0.844;2023-03-14T06:20:12;98842.33;;;4.00;84.94
62926;BME280;55732;52.248;-0.844;2023-03-14T06:22:38;98850.87;;;3.93;84.90
62926;BME280;55732;52.248;-0.844;2023-03-14T06:25:05;98864.30;;;3.83;85.05
62926;BME280;55732;52.248;-0.844;2023-03-14T06:27:31;98870.75;;;3.75;85.43
62926;BME280;55732;52.248;-0.844;2023-03-14T06:29:56;98879.63;;;3.70;85.35
62926;BME280;55732;52.248;-0.844;2023-03-14T06:32:22;98892.88;;;3.65;85.44
62926;BME280;55732;52.248;-0.844;2023-03-14T06:34:47;98906.09;;;3.59;85.39
62926;BME280;55732;52.248;-0.844;2023-03-14T06:37:13;98923.68;;;3.50;85.31
62926;BME280;55732;52.248;-0.844;2023-03-14T06:39:38;98935.32;;;3.38;85.09
62926;BME280;55732;52.248;-0.844;2023-03-14T06:42:04;98948.88;;;3.27;85.07
62926;BME280;55732;52.248;-0.844;2023-03-14T06:44:30;98952.67;;;3.15;85.32
62926;BME280;55732;52.248;-0.844;2023-03-14T06:46:55;98959.61;;;3.06;85.55
62926;BME280;55732;52.248;-0.844;2023-03-14T06:49:21;98967.25;;;3.02;85.95
62926;BME280;55732;52.248;-0.844;2023-03-14T06:51:47;98975.25;;;3.02;86.30
62926;BME280;55732;52.248;-0.844;2023-03-14T06:54:14;98983.24;;;3.02;86.52
62926;BME280;55732;52.248;-0.844;2023-03-14T06:56:39;98987.77;;;3.03;86.80
62926;BME280;55732;52.248;-0.844;2023-03-14T06:59:05;99000.30;;;3.05;87.06
62926;BME280;55732;52.248;-0.844;2023-03-14T07:01:31;99006.39;;;3.09;87.14
62926;BME280;55732;52.248;-0.844;2023-03-14T07:04:00;99014.93;;;3.13;87.14
62926;BME280;55732;52.248;-0.844;2023-03-14T07:06:26;99032.52;;;3.16;86.92
62926;BME280;55732;52.248;-0.844;2023-03-14T07:08:54;99042.42;;;3.18;87.00
62926;BME280;55732;52.248;-0.844;2023-03-14T07:11:19;99050.59;;;3.21;87.12
62926;BME280;55732;52.248;-0.844;2023-03-14T07:13:45;99061.06;;;3.26;86.83
62926;BME280;55732;52.248;-0.844;2023-03-14T07:16:10;99066.97;;;3.31;86.76
62926;BME280;55732;52.248;-0.844;2023-03-14T07:18:36;99080.73;;;3.35;86.53
62926;BME280;55732;52.248;-0.844;2023-03-14T07:21:02;99094.14;;;3.37;86.60
62926;BME280;55732;52.248;-0.844;2023-03-14T07:23:28;99105.63;;;3.39;86.73
62926;BME280;55732;52.248;-0.844;2023-03-14T07:25:54;99117.11;;;3.41;86.62
62926;BME280;55732;52.248;-0.844;2023-03-14T07:28:20;99122.35;;;3.44;86.39
62926;BME280;55732;52.248;-0.844;2023-03-14T07:30:46;99134.89;;;3.47;86.09
62926;BME280;55732;52.248;-0.844;2023-03-14T07:33:12;99150.20;;;3.47;86.00
62926;BME280;55732;52.248;-0.844;2023-03-14T07:35:38;99159.77;;;3.48;86.09
62926;BME280;55732;52.248;-0.844;2023-03-14T07:38:03;99172.64;;;3.46;85.75
62926;BME280;55732;52.248;-0.844;2023-03-14T07:40:29;99179.58;;;3.43;85.99
62926;BME280;55732;52.248;-0.844;2023-03-14T07:42:54;99192.28;;;3.42;86.07
62926;BME280;55732;52.248;-0.844;2023-03-14T07:45:20;99199.59;;;3.42;86.12
62926;BME280;55732;52.248;-0.844;2023-03-14T07:47:46;99207.77;;;3.41;85.94
62926;BME280;55732;52.248;-0.844;2023-03-14T07:50:11;99219.60;;;3.39;86.00
62926;BME280;55732;52.248;-0.844;2023-03-14T07:52:37;99228.63;;;3.38;86.00
62926;BME280;55732;52.248;-0.844;2023-03-14T07:55:02;99235.90;;;3.34;85.86
62926;BME280;55732;52.248;-0.844;2023-03-14T07:57:28;99241.27;;;3.32;86.03
62926;BME280;55732;52.248;-0.844;2023-03-14T07:59:53;99251.72;;;3.29;85.83
62926;BME280;55732;52.248;-0.844;2023-03-14T08:02:19;99263.33;;;3.24;85.62
62926;BME280;55732;52.248;-0.844;2023-03-14T08:04:47;99269.04;;;3.21;85.75
62926;BME280;55732;52.248;-0.844;2023-03-14T08:07:14;99280.85;;;3.19;85.65
62926;BME280;55732;52.248;-0.844;2023-03-14T08:09:39;99288.52;;;3.21;85.82
62926;BME280;55732;52.248;-0.844;2023-03-14T08:12:05;99296.91;;;3.25;85.65
62926;BME280;55732;52.248;-0.844;2023-03-14T08:14:31;99304.27;;;3.35;85.98
62926;BME280;55732;52.248;-0.844;2023-03-14T08:16:57;99310.11;;;3.48;86.03
62926;BME280;55732;52.248;-0.844;2023-03-14T08:19:23;99311.94;;;3.63;85.67
62926;BME280;55732;52.248;-0.844;2023-03-14T08:21:48;99322.66;;;3.81;85.41
62926;BME280;55732;52.248;-0.844;2023-03-14T08:24:13;99325.58;;;4.03;85.15
62926;BME280;55732;52.248;-0.844;2023-03-14T08:26:39;99330.34;;;4.21;84.98
62926;BME280;55732;52.248;-0.844;2023-03-14T08:29:04;99340.16;;;4.35;85.09
62926;BME280;55732;52.248;-0.844;2023-03-14T08:31:30;99340.54;;;4.43;84.64
62926;BME280;55732;52.248;-0.844;2023-03-14T08:33:58;99347.02;;;4.50;84.52
62926;BME280;55732;52.248;-0.844;2023-03-14T08:36:24;99354.54;;;4.63;84.64
62926;BME280;55732;52.248;-0.844;2023-03-14T08:38:49;99365.03;;;4.74;84.44
62926;BME280;55732;52.248;-0.844;2023-03-14T08:41:14;99368.54;;;4.79;84.27
62926;BME280;55732;52.248;-0.844;2023-03-14T08:43:40;99373.26;;;4.82;84.37
62926;BME280;55732;52.248;-0.844;2023-03-14T08:46:05;99382.68;;;4.88;84.24
62926;BME280;55732;52.248;-0.844;2023-03-14T08:48:31;99386.53;;;4.98;83.98
62926;BME280;55732;52.248;-0.844;2023-03-14T08:51:03;99394.75;;;5.07;83.95
62926;BME280;55732;52.248;-0.844;2023-03-14T08:53:29;99405.57;;;5.12;83.56
62926;BME280;55732;52.248;-0.844;2023-03-14T08:55:54;99412.74;;;5.17;83.86
62926;BME280;55732;52.248;-0.844;2023-03-14T08:58:20;99422.70;;;5.26;83.22
62926;BME280;55732;52.248;-0.844;2023-03-14T09:00:46;99427.60;;;5.37;83.21
62926;BME280;55732;52.248;-0.844;2023-03-14T09:03:11;99440.35;;;5.49;82.99
62926;BME280;55732;52.248;-0.844;2023-03-14T09:05:37;99448.39;;;5.53;82.76
62926;BME280;55732;52.248;-0.844;2023-03-14T09:08:02;99457.30;;;5.60;82.42
62926;BME280;55732;52.248;-0.844;2023-03-14T09:10:28;99463.05;;;5.60;81.98
62926;BME280;55732;52.248;-0.844;2023-03-14T09:12:53;99472.15;;;5.68;82.04
62926;BME280;55732;52.248;-0.844;2023-03-14T09:15:19;99478.28;;;5.90;81.70
62926;BME280;55732;52.248;-0.844;2023-03-14T09:17:44;99482.98;;;6.24;81.20
62926;BME280;55732;52.248;-0.844;2023-03-14T09:20:10;99488.52;;;6.51;79.91
62926;BME280;55732;52.248;-0.844;2023-03-14T09:22:36;99496.16;;;6.72;79.45
62926;BME280;55732;52.248;-0.844;2023-03-14T09:25:05;99500.83;;;6.88;79.24
62926;BME280;55732;52.248;-0.844;2023-03-14T09:27:31;99504.27;;;7.01;78.74
62926;BME280;55732;52.248;-0.844;2023-03-14T09:29:56;99513.65;;;7.17;78.49
62926;BME280;55732;52.248;-0.844;2023-03-14T09:32:22;99514.75;;;7.39;77.65
62926;BME280;55732;52.248;-0.844;2023-03-14T09:34:47;99508.20;;;8.67;75.73
62926;BME280;55732;52.248;-0.844;2023-03-14T09:37:12;99509.98;;;11.46;70.43
62926;BME280;55732;52.248;-0.844;2023-03-14T09:39:38;99513.55;;;13.72;66.15
62926;BME280;55732;52.248;-0.844;2023-03-14T09:42:06;99522.77;;;15.61;63.17
62926;BME280;55732;52.248;-0.844;2023-03-14T09:44:36;99524.55;;;17.27;59.01
62926;BME280;55732;52.248;-0.844;2023-03-14T09:47:06;99526.64;;;18.26;55.80
62926;BME280;55732;52.248;-0.844;2023-03-14T09:49:34;99537.92;;;19.18;54.29
62926;BME280;55732;52.248;-0.844;2023-03-14T09:52:06;99546.34;;;20.22;52.41
62926;BME280;55732;52.248;-0.844;2023-03-14T09:54:54;99546.20;;;20.97;48.87
62926;BME280;55732;52.248;-0.844;2023-03-14T09:57:24;99551.48;;;21.04;49.00
62926;BME280;55732;52.248;-0.844;2023-03-14T09:59:53;99555.37;;;19.88;50.21
62926;BME280;55732;52.248;-0.844;2023-03-14T10:02:23;99563.48;;;19.93;48.35
62926;BME280;55732;52.248;-0.844;2023-03-14T10:04:51;99568.95;;;20.78;46.13
62926;BME280;55732;52.248;-0.844;2023-03-14T10:07:20;99575.26;;;21.37;44.80
62926;BME280;55732;52.248;-0.844;2023-03-14T10:09:49;99593.04;;;21.34;43.91
62926;BME280;55732;52.248;-0.844;2023-03-14T10:12:15;99610.09;;;21.42;44.10
62926;BME280;55732;52.248;-0.844;2023-03-14T10:14:50;99621.08;;;20.84;44.74
62926;BME280;55732;52.248;-0.844;2023-03-14T10:17:17;99619.46;;;20.63;44.17
62926;BME280;55732;52.248;-0.844;2023-03-14T10:19:57;99626.12;;;21.08;42.94
62926;BME280;55732;52.248;-0.844;2023-03-14T10:22:29;99636.10;;;20.05;43.25
62926;BME280;55732;52.248;-0.844;2023-03-14T10:24:57;99639.44;;;20.23;42.25
62926;BME280;55732;52.248;-0.844;2023-03-14T10:27:34;99645.61;;;20.59;41.57
62926;BME280;55732;52.248;-0.844;2023-03-14T10:30:03;99641.69;;;20.26;41.97
62926;BME280;55732;52.248;-0.844;2023-03-14T10:32:38;99646.58;;;19.47;43.89
62926;BME280;55732;52.248;-0.844;2023-03-14T10:38:01;99655.22;;;18.64;43.35
62926;BME280;55732;52.248;-0.844;2023-03-14T10:40:36;99668.39;;;17.28;45.26
62926;BME280;55732;52.248;-0.844;2023-03-14T10:43:05;99675.73;;;16.19;46.20
62926;BME280;55732;52.248;-0.844;2023-03-14T10:47:59;99680.61;;;14.71;48.71
62926;BME280;55732;52.248;-0.844;2023-03-14T10:50:31;99687.25;;;14.06;49.61
62926;BME280;55732;52.248;-0.844;2023-03-14T10:52:59;99685.21;;;13.54;50.03
62926;BME280;55732;52.248;-0.844;2023-03-14T10:55:39;99699.17;;;13.28;50.47
62926;BME280;55732;52.248;-0.844;2023-03-14T10:58:26;99703.69;;;13.03;50.95
62926;BME280;55732;52.248;-0.844;2023-03-14T11:01:15;99712.79;;;13.73;49.66
62926;BME280;55732;52.248;-0.844;2023-03-14T11:03:49;99717.13;;;13.58;50.38
62926;BME280;55732;52.248;-0.844;2023-03-14T11:06:23;99720.88;;;13.09;51.06
62926;BME280;55732;52.248;-0.844;2023-03-14T11:11:45;99733.68;;;12.21;51.69
62926;BME280;55732;52.248;-0.844;2023-03-14T11:17:27;99747.58;;;11.41;52.61
62926;BME280;55732;52.248;-0.844;2023-03-14T11:22:58;99771.53;;;10.79;54.71
62926;BME280;55732;52.248;-0.844;2023-03-14T11:28:30;99788.60;;;10.55;54.62
62926;BME280;55732;52.248;-0.844;2023-03-14T11:31:24;99796.91;;;10.40;55.33
62926;BME280;55732;52.248;-0.844;2023-03-14T11:34:16;99808.05;;;10.36;55.78
62926;BME280;55732;52.248;-0.844;2023-03-14T11:36:51;99809.48;;;10.35;55.51
62926;BME280;55732;52.248;-0.844;2023-03-14T11:39:20;99805.61;;;10.18;54.90
62926;BME280;55732;52.248;-0.844;2023-03-14T11:41:49;99805.80;;;10.15;55.09
62926;BME280;55732;52.248;-0.844;2023-03-14T11:44:25;99803.40;;;10.11;55.10
62926;BME280;55732;52.248;-0.844;2023-03-14T11:47:14;99803.44;;;10.06;55.71
62926;BME280;55732;52.248;-0.844;2023-03-14T11:55:07;99803.94;;;10.09;56.48
62926;BME280;55732;52.248;-0.844;2023-03-14T11:57:36;99807.24;;;10.13;56.37
62926;BME280;55732;52.248;-0.844;2023-03-14T12:00:26;99808.70;;;10.09;56.01
62926;BME280;55732;52.248;-0.844;2023-03-14T12:05:50;99816.60;;;10.09;54.94
62926;BME280;55732;52.248;-0.844;2023-03-14T12:08:38;99817.65;;;10.10;55.38
62926;BME280;55732;52.248;-0.844;2023-03-14T12:13:36;99831.89;;;10.11;53.59
62926;BME280;55732;52.248;-0.844;2023-03-14T12:18:52;99833.34;;;10.06;54.07
62926;BME280;55732;52.248;-0.844;2023-03-14T12:21:19;99836.64;;;10.11;54.22
62926;BME280;55732;52.248;-0.844;2023-03-14T12:23:50;99839.14;;;10.25;54.20
62926;BME280;55732;52.248;-0.844;2023-03-14T12:26:22;99844.80;;;10.38;53.61
62926;BME280;55732;52.248;-0.844;2023-03-14T12:50:13;99871.88;;;10.54;51.49
62926;BME280;55732;52.248;-0.844;2023-03-14T12:55:19;99883.17;;;10.37;50.78
62926;BME280;55732;52.248;-0.844;2023-03-14T13:00:32;99885.24;;;10.05;50.91
62926;BME280;55732;52.248;-0.844;2023-03-14T13:03:21;99879.58;;;9.92;51.17
62926;BME280;55732;52.248;-0.844;2023-03-14T13:05:58;99878.58;;;10.03;51.90
62926;BME280;55732;52.248;-0.844;2023-03-14T13:08:44;99878.06;;;10.03;51.96
62926;BME280;55732;52.248;-0.844;2023-03-14T13:11:12;99882.96;;;10.05;52.05
62926;BME280;55732;52.248;-0.844;2023-03-14T13:13:45;99879.52;;;10.15;51.29
62926;BME280;55732;52.248;-0.844;2023-03-14T13:16:20;99883.65;;;10.26;51.73
62926;BME280;55732;52.248;-0.844;2023-03-14T13:19:29;99881.04;;;10.38;51.57
62926;BME280;55732;52.248;-0.844;2023-03-14T13:21:36;99875.89;;;10.42;50.99
62926;BME280;55732;52.248;-0.844;2023-03-14T13:24:05;99870.79;;;10.57;51.23
62926;BME280;55732;52.248;-0.844;2023-03-14T13:26:41;99878.14;;;10.73;51.03
62926;BME280;55732;52.248;-0.844;2023-03-14T13:29:17;99875.84;;;10.74;50.02
62926;BME280;55732;52.248;-0.844;2023-03-14T13:31:46;99873.39;;;10.73;50.34
62926;BME280;55732;52.248;-0.844;2023-03-14T13:34:12;99872.02;;;10.82;50.42
62926;BME280;55732;52.248;-0.844;2023-03-14T13:36:38;99872.52;;;10.85;50.36
62926;BME280;55732;52.248;-0.844;2023-03-14T13:39:09;99879.16;;;10.75;50.07
62926;BME280;55732;52.248;-0.844;2023-03-14T13:41:37;99884.55;;;10.67;49.94
62926;BME280;55732;52.248;-0.844;2023-03-14T13:44:06;99886.08;;;10.60;49.77
62926;BME280;55732;52.248;-0.844;2023-03-14T13:46:34;99879.98;;;10.68;49.76
62926;BME280;55732;52.248;-0.844;2023-03-14T13:49:03;99886.10;;;10.72;49.52
62926;BME280;55732;52.248;-0.844;2023-03-14T13:51:31;99875.67;;;10.60;49.55
62926;BME280;55732;52.248;-0.844;2023-03-14T13:54:01;99885.92;;;10.71;49.37
62926;BME280;55732;52.248;-0.844;2023-03-14T13:56:31;99890.04;;;10.66;49.52
62926;BME280;55732;52.248;-0.844;2023-03-14T13:58:57;99890.79;;;10.62;49.82
62926;BME280;55732;52.248;-0.844;2023-03-14T14:01:32;99891.85;;;10.62;49.18
62926;BME280;55732;52.248;-0.844;2023-03-14T14:04:06;99891.43;;;10.80;49.18
62926;BME280;55732;52.248;-0.844;2023-03-14T14:09:04;99887.52;;;11.09;48.78
62926;BME280;55732;52.248;-0.844;2023-03-14T14:11:54;99886.24;;;11.23;48.57
62926;BME280;55732;52.248;-0.844;2023-03-14T14:14:25;99891.05;;;11.42;48.36
62926;BME280;55732;52.248;-0.844;2023-03-14T14:16:52;99888.42;;;11.63;47.78